createdAt,value
2019-04-30T00:00:38.400Z,3.73
2019-04-30T00:02:50.588Z,3.77
2019-04-30T00:04:56.997Z,3.77
2019-04-30T00:07:01.938Z,3.50
2019-04-30T00:09:09.640Z,3.57
2019-04-30T00:11:19.483Z,3.30
2019-04-30T00:13:23.209Z,3.57
2019-04-30T00:15:28.079Z,3.63
2019-04-30T00:17:32.844Z,3.30
2019-04-30T00:19:37.523Z,3.70
2019-04-30T00:21:42.345Z,5.20
2019-04-30T00:23:48.639Z,3.33
2019-04-30T00:25:58.403Z,2.93
2019-04-30T00:28:00.184Z,2.97
2019-04-30T00:30:08.961Z,3.40
2019-04-30T00:32:15.780Z,3.37
2019-04-30T00:34:20.285Z,2.83
2019-04-30T00:36:29.036Z,3.10
2019-04-30T00:38:34.267Z,3.27
2019-04-30T00:40:38.078Z,3.33
2019-04-30T00:42:42.931Z,3.23
2019-04-30T00:44:47.675Z,3.30
2019-04-30T00:46:52.496Z,2.87
2019-04-30T00:49:08.846Z,2.80
2019-04-30T00:51:26.037Z,2.90
2019-04-30T00:53:30.805Z,3.33
2019-04-30T00:55:40.226Z,3.07
2019-04-30T00:57:43.898Z,2.50
2019-04-30T00:59:48.490Z,3.33
2019-04-30T01:02:12.619Z,3.57
2019-04-30T01:04:24.511Z,2.60
2019-04-30T01:06:28.782Z,3.10
2019-04-30T01:08:35.847Z,2.90
2019-04-30T01:10:40.778Z,3.17
2019-04-30T01:12:47.992Z,2.73
2019-04-30T01:14:52.258Z,4.00
2019-04-30T01:16:57.034Z,2.73
2019-04-30T01:19:05.746Z,2.97
2019-04-30T01:21:11.235Z,3.83
2019-04-30T01:23:16.103Z,3.03
2019-04-30T01:25:20.874Z,2.97
2019-04-30T01:27:46.614Z,2.87
2019-04-30T01:29:52.558Z,3.00
2019-04-30T01:31:58.614Z,3.17
2019-04-30T01:34:05.194Z,2.57
2019-04-30T01:36:13.311Z,3.13
2019-04-30T01:38:16.230Z,3.70
2019-04-30T01:40:20.982Z,3.63
2019-04-30T01:42:26.076Z,3.13
2019-04-30T01:44:30.790Z,3.90
2019-04-30T01:46:35.528Z,2.60
2019-04-30T01:48:43.609Z,3.10
2019-04-30T01:50:48.688Z,3.53
2019-04-30T01:52:53.205Z,3.07
2019-04-30T01:54:58.675Z,3.87
2019-04-30T01:57:19.265Z,3.47
2019-04-30T01:59:29.155Z,3.40
2019-04-30T02:01:38.926Z,3.80
2019-04-30T02:03:43.142Z,3.23
2019-04-30T02:05:49.714Z,3.50
2019-04-30T02:07:54.264Z,3.20
2019-04-30T02:09:59.038Z,3.20
2019-04-30T02:12:03.786Z,4.10
2019-04-30T02:14:09.030Z,3.63
2019-04-30T02:16:14.010Z,3.30
2019-04-30T02:18:19.496Z,4.10
2019-04-30T02:20:24.518Z,3.50
2019-04-30T02:22:31.206Z,3.23
2019-04-30T02:24:35.718Z,3.57
2019-04-30T02:26:40.389Z,3.47
2019-04-30T02:28:45.146Z,3.50
2019-04-30T02:30:50.677Z,4.27
2019-04-30T02:33:00.110Z,3.17
2019-04-30T02:35:24.952Z,3.10
2019-04-30T02:37:35.455Z,3.40
2019-04-30T02:39:40.467Z,4.43
2019-04-30T02:41:45.386Z,3.90
2019-04-30T02:43:50.424Z,3.00
2019-04-30T02:45:55.941Z,3.93
2019-04-30T02:48:01.013Z,3.63
2019-04-30T02:50:15.484Z,3.67
2019-04-30T02:52:13.047Z,3.30
2019-04-30T02:54:23.231Z,5.03
2019-04-30T02:56:27.145Z,3.40
2019-04-30T02:58:32.934Z,3.53
2019-04-30T03:00:39.416Z,3.50
2019-04-30T03:02:44.274Z,4.63
2019-04-30T03:04:50.265Z,3.67
2019-04-30T03:06:55.071Z,3.37
2019-04-30T03:09:01.127Z,3.73
2019-04-30T03:11:09.762Z,3.23
2019-04-30T03:13:14.045Z,4.00
2019-04-30T03:15:19.481Z,3.33
2019-04-30T03:17:42.052Z,4.33
2019-04-30T03:19:54.164Z,4.03
2019-04-30T03:22:00.585Z,6.10
2019-04-30T03:24:05.344Z,3.87
2019-04-30T03:26:12.968Z,3.80
2019-04-30T03:28:16.516Z,3.23
2019-04-30T03:30:22.206Z,4.27
2019-04-30T03:32:35.756Z,3.60
2019-04-30T03:34:33.560Z,4.00
2019-04-30T03:36:40.354Z,3.07
2019-04-30T03:38:46.352Z,3.40
2019-04-30T03:40:51.112Z,3.27
2019-04-30T03:42:56.058Z,4.20
2019-04-30T03:45:00.797Z,4.03
2019-04-30T03:47:05.720Z,3.83
2019-04-30T03:49:13.146Z,3.87
2019-04-30T03:51:16.889Z,3.77
2019-04-30T03:53:21.624Z,5.03
2019-04-30T03:55:26.405Z,3.77
2019-04-30T03:57:31.074Z,4.77
2019-04-30T03:59:35.844Z,3.57
2019-04-30T04:01:45.055Z,3.83
2019-04-30T04:04:10.025Z,5.13
2019-04-30T04:06:24.757Z,3.77
2019-04-30T04:08:34.088Z,3.33
2019-04-30T04:10:46.259Z,3.53
2019-04-30T04:12:52.673Z,4.13
2019-04-30T04:15:03.170Z,3.60
2019-04-30T04:17:03.968Z,4.33
2019-04-30T04:19:09.658Z,3.90
2019-04-30T04:21:16.905Z,3.93
2019-04-30T04:23:21.954Z,3.10
2019-04-30T04:25:29.841Z,4.17
2019-04-30T04:27:34.423Z,4.77
2019-04-30T04:29:40.328Z,4.70
2019-04-30T04:31:45.169Z,4.73
2019-04-30T04:33:52.678Z,4.20
2019-04-30T04:35:56.356Z,4.23
2019-04-30T04:38:01.126Z,3.67
2019-04-30T04:40:09.116Z,3.83
2019-04-30T04:42:12.863Z,4.43
2019-04-30T04:44:20.289Z,3.60
2019-04-30T04:46:23.930Z,3.63
2019-04-30T04:48:29.775Z,4.87
2019-04-30T04:50:34.758Z,3.87
2019-04-30T04:52:39.785Z,4.33
2019-04-30T04:54:44.690Z,3.60
2019-04-30T04:56:52.946Z,5.37
2019-04-30T04:58:55.843Z,3.97
2019-04-30T05:01:00.584Z,5.00
2019-04-30T05:03:09.958Z,3.83
2019-04-30T05:05:14.719Z,5.57
2019-04-30T05:07:19.671Z,3.93
2019-04-30T05:09:24.553Z,4.60
2019-04-30T05:11:31.599Z,4.37
2019-04-30T05:13:35.958Z,4.97
2019-04-30T05:15:40.721Z,5.20
2019-04-30T05:17:45.395Z,5.87
2019-04-30T05:19:50.140Z,5.23
2019-04-30T05:21:54.913Z,6.00
2019-04-30T05:23:59.675Z,5.10
2019-04-30T05:26:04.343Z,6.50
2019-04-30T05:28:09.057Z,5.13
2019-04-30T05:30:13.809Z,6.47
2019-04-30T05:32:19.704Z,6.17
2019-04-30T05:34:24.560Z,5.87
2019-04-30T05:36:29.361Z,5.17
2019-04-30T05:38:34.051Z,6.20
2019-04-30T05:40:39.802Z,7.17
2019-04-30T05:42:45.270Z,8.93
2019-04-30T05:44:50.090Z,6.77
2019-04-30T05:46:54.948Z,6.87
2019-04-30T05:48:59.692Z,7.10
2019-04-30T05:51:04.356Z,7.80
2019-04-30T05:53:09.149Z,8.73
2019-04-30T05:55:13.810Z,6.90
2019-04-30T05:57:19.738Z,7.07
2019-04-30T05:59:25.733Z,9.33
2019-04-30T06:01:30.488Z,7.60
2019-04-30T06:03:35.257Z,8.47
2019-04-30T06:05:40.051Z,8.60
2019-04-30T06:07:44.799Z,9.73
2019-04-30T06:09:51.450Z,6.70
2019-04-30T06:12:00.613Z,8.30
2019-04-30T06:14:25.310Z,6.70
2019-04-30T06:16:30.726Z,7.03
2019-04-30T06:18:35.424Z,8.10
2019-04-30T06:20:40.632Z,8.30
2019-04-30T06:22:45.484Z,7.90
2019-04-30T06:24:50.288Z,8.60
2019-04-30T06:26:55.038Z,9.70
2019-04-30T06:28:59.698Z,8.63
2019-04-30T06:31:04.422Z,8.13
2019-04-30T06:33:11.639Z,9.33
2019-04-30T06:35:15.548Z,9.20
2019-04-30T06:37:20.505Z,8.40
2019-04-30T06:39:26.362Z,9.10
2019-04-30T06:41:31.108Z,8.60
2019-04-30T06:43:35.862Z,8.07
2019-04-30T06:45:40.648Z,7.73
2019-04-30T06:47:45.408Z,8.27
2019-04-30T06:49:50.116Z,10.63
2019-04-30T06:51:54.853Z,8.27
2019-04-30T06:53:59.546Z,9.47
2019-04-30T06:56:04.338Z,8.17
2019-04-30T06:58:15.166Z,10.03
2019-04-30T07:00:15.506Z,8.67
2019-04-30T07:02:20.193Z,8.97
2019-04-30T07:04:24.987Z,7.23
2019-04-30T07:06:32.782Z,9.57
2019-04-30T07:08:55.909Z,9.50
2019-04-30T07:11:19.403Z,9.13
2019-04-30T07:13:29.711Z,10.23
2019-04-30T07:15:34.511Z,7.90
2019-04-30T07:17:40.690Z,10.07
2019-04-30T07:19:55.680Z,8.90
2019-04-30T07:21:51.934Z,9.67
2019-04-30T07:23:56.694Z,8.03
2019-04-30T07:26:01.455Z,10.50
2019-04-30T07:28:06.276Z,9.10
2019-04-30T07:30:11.345Z,8.50
2019-04-30T07:32:19.713Z,7.30
2019-04-30T07:34:44.967Z,11.33
2019-04-30T07:37:10.479Z,9.97
2019-04-30T07:38:56.898Z,9.63
2019-04-30T07:41:02.822Z,8.57
2019-04-30T07:43:09.104Z,7.63
2019-04-30T07:45:13.942Z,8.57
2019-04-30T07:47:19.482Z,8.67
2019-04-30T07:49:24.571Z,8.50
2019-04-30T07:51:31.398Z,8.50
2019-04-30T07:53:35.802Z,8.37
2019-04-30T07:55:40.589Z,8.53
2019-04-30T07:57:45.353Z,11.10
2019-04-30T07:59:50.120Z,8.17
2019-04-30T08:02:06.476Z,9.20
2019-04-30T08:04:19.177Z,8.53
2019-04-30T08:06:24.382Z,7.93
2019-04-30T08:08:30.363Z,9.00
2019-04-30T08:10:35.325Z,8.53
2019-04-30T08:12:43.142Z,9.97
2019-04-30T08:14:46.469Z,7.17
2019-04-30T08:16:51.390Z,7.83
2019-04-30T08:18:56.133Z,9.13
2019-04-30T08:21:01.088Z,9.00
2019-04-30T08:23:14.071Z,8.47
2019-04-30T08:25:12.675Z,9.77
2019-04-30T08:27:19.164Z,6.50
2019-04-30T08:29:23.837Z,7.40
2019-04-30T08:31:29.189Z,6.43
2019-04-30T08:33:34.301Z,5.67
2019-04-30T08:35:39.766Z,5.37
2019-04-30T08:37:45.089Z,6.37
2019-04-30T08:39:49.900Z,7.87
2019-04-30T08:41:54.593Z,7.40
2019-04-30T08:43:59.926Z,7.23
2019-04-30T08:46:04.723Z,8.83
2019-04-30T08:48:09.579Z,8.27
2019-04-30T08:50:14.338Z,9.80
2019-04-30T08:52:19.783Z,8.37
2019-04-30T08:54:24.884Z,8.37
2019-04-30T08:56:29.780Z,6.50
2019-04-30T08:58:35.027Z,7.67
2019-04-30T09:00:39.773Z,7.40
2019-04-30T09:02:44.612Z,8.07
2019-04-30T09:04:51.012Z,7.30
2019-04-30T09:06:56.681Z,7.23
2019-04-30T09:09:02.634Z,7.17
2019-04-30T09:11:21.832Z,6.93
2019-04-30T09:13:15.423Z,6.67
2019-04-30T09:15:20.199Z,7.43
2019-04-30T09:17:24.887Z,8.97
2019-04-30T09:19:30.180Z,7.30
2019-04-30T09:21:35.201Z,8.20
2019-04-30T09:23:49.410Z,7.20
2019-04-30T09:25:46.295Z,7.63
2019-04-30T09:27:51.073Z,8.43
2019-04-30T09:29:55.783Z,6.87
2019-04-30T09:32:00.572Z,7.50
2019-04-30T09:34:15.260Z,8.40
2019-04-30T09:36:11.767Z,9.80
2019-04-30T09:38:16.621Z,7.70
2019-04-30T09:40:21.373Z,9.43
2019-04-30T09:42:26.107Z,8.53
2019-04-30T09:44:31.142Z,8.90
2019-04-30T09:46:35.935Z,7.83
2019-04-30T09:48:40.688Z,10.37
2019-04-30T09:50:45.846Z,10.43
2019-04-30T09:52:50.992Z,8.30
2019-04-30T09:54:59.263Z,9.30
2019-04-30T09:57:09.105Z,10.43
2019-04-30T09:59:13.397Z,9.80
2019-04-30T10:01:18.058Z,8.87
2019-04-30T10:03:23.656Z,11.20
2019-04-30T10:05:29.238Z,11.43
2019-04-30T10:07:34.387Z,8.07
2019-04-30T10:09:39.138Z,7.90
2019-04-30T10:11:45.485Z,10.27
2019-04-30T10:13:50.238Z,10.10
2019-04-30T10:15:58.438Z,10.10
2019-04-30T10:18:03.077Z,7.97
2019-04-30T10:20:08.964Z,9.03
2019-04-30T10:22:13.830Z,8.13
2019-04-30T10:24:19.640Z,9.60
2019-04-30T10:26:24.534Z,10.63
2019-04-30T10:28:29.375Z,8.87
2019-04-30T10:30:37.103Z,8.50
2019-04-30T10:32:41.874Z,9.33
2019-04-30T10:34:46.614Z,10.33
2019-04-30T10:36:51.882Z,10.70
2019-04-30T10:38:56.789Z,10.07
2019-04-30T10:41:03.138Z,10.00
2019-04-30T10:43:08.920Z,9.70
2019-04-30T10:45:14.937Z,9.90
2019-04-30T10:47:19.724Z,10.00
2019-04-30T10:49:24.480Z,10.67
2019-04-30T10:51:29.354Z,8.30
2019-04-30T10:53:34.128Z,9.50
2019-04-30T10:55:38.907Z,9.57
2019-04-30T10:57:43.853Z,10.30
2019-04-30T10:59:48.780Z,10.47
2019-04-30T11:01:53.531Z,11.30
2019-04-30T11:03:58.378Z,10.47
2019-04-30T11:06:03.187Z,10.13
2019-04-30T11:08:07.944Z,10.47
2019-04-30T11:10:12.684Z,8.33
2019-04-30T11:12:19.268Z,9.90
2019-04-30T11:14:23.849Z,10.67
2019-04-30T11:16:29.764Z,13.13
2019-04-30T11:18:34.899Z,10.03
2019-04-30T11:20:39.982Z,10.40
2019-04-30T11:22:45.555Z,12.07
2019-04-30T11:24:58.351Z,11.17
2019-04-30T11:26:59.260Z,12.53
2019-04-30T11:29:04.194Z,9.47
2019-04-30T11:31:26.051Z,12.07
2019-04-30T11:33:31.333Z,9.27
2019-04-30T11:35:36.326Z,9.33
2019-04-30T11:37:41.111Z,10.13
2019-04-30T11:39:45.891Z,11.70
2019-04-30T11:41:50.647Z,10.97
2019-04-30T11:43:55.384Z,12.90
2019-04-30T11:46:38.368Z,13.07
2019-04-30T11:48:42.894Z,10.03
2019-04-30T11:50:49.564Z,8.43
2019-04-30T11:53:07.050Z,9.23
2019-04-30T11:55:00.555Z,10.07
2019-04-30T11:57:05.784Z,13.27
2019-04-30T11:59:10.506Z,9.30
2019-04-30T12:01:26.168Z,9.60
2019-04-30T12:03:31.953Z,9.87
2019-04-30T12:05:38.846Z,8.53
2019-04-30T12:07:44.829Z,12.13
2019-04-30T12:09:51.144Z,10.50
2019-04-30T12:11:58.919Z,13.10
2019-04-30T12:14:03.866Z,10.37
2019-04-30T12:16:08.743Z,11.07
2019-04-30T12:18:13.669Z,10.70
2019-04-30T12:20:19.657Z,11.23
2019-04-30T12:22:24.518Z,11.07
2019-04-30T12:24:30.897Z,10.50
2019-04-30T12:26:35.686Z,11.13
2019-04-30T12:28:40.372Z,9.70
2019-04-30T12:30:45.221Z,11.53
2019-04-30T12:32:51.143Z,9.10
2019-04-30T12:34:55.808Z,10.57
2019-04-30T12:37:00.493Z,9.67
2019-04-30T12:39:06.959Z,10.73
2019-04-30T12:41:11.822Z,16.10
2019-04-30T12:43:16.660Z,10.20
2019-04-30T12:45:21.432Z,12.77
2019-04-30T12:47:29.517Z,11.97
2019-04-30T12:49:41.872Z,9.47
2019-04-30T12:51:48.812Z,10.57
2019-04-30T12:53:56.549Z,12.67
2019-04-30T12:56:03.015Z,12.63
2019-04-30T12:58:09.820Z,12.37
2019-04-30T13:00:14.963Z,11.93
2019-04-30T13:02:19.645Z,10.63
2019-04-30T13:04:24.483Z,13.13
2019-04-30T13:06:29.807Z,10.87
2019-04-30T13:08:35.452Z,11.90
2019-04-30T13:10:41.560Z,10.77
2019-04-30T13:12:47.361Z,12.20
2019-04-30T13:14:54.788Z,10.83
2019-04-30T13:16:59.311Z,12.40
2019-04-30T13:19:04.072Z,12.37
2019-04-30T13:21:08.853Z,13.63
2019-04-30T13:23:13.606Z,11.20
2019-04-30T13:25:30.038Z,11.50
2019-04-30T13:27:24.900Z,9.97
2019-04-30T13:29:32.886Z,12.90
2019-04-30T13:31:37.757Z,12.17
2019-04-30T13:33:49.451Z,9.20
2019-04-30T13:35:53.554Z,15.67
2019-04-30T13:37:59.992Z,12.13
2019-04-30T13:40:12.103Z,11.07
2019-04-30T13:42:29.252Z,11.27
2019-04-30T13:44:35.931Z,11.33
2019-04-30T13:46:40.963Z,12.13
2019-04-30T13:48:45.627Z,11.60
2019-04-30T13:50:50.351Z,11.23
2019-04-30T13:52:55.091Z,10.77
2019-04-30T13:54:59.889Z,8.70
2019-04-30T13:57:04.641Z,13.03
2019-04-30T13:59:09.392Z,12.20
2019-04-30T14:01:14.182Z,11.73
2019-04-30T14:03:26.557Z,12.17
2019-04-30T14:05:31.249Z,11.37
2019-04-30T14:07:43.837Z,9.90
2019-04-30T14:09:48.747Z,10.10
2019-04-30T14:11:53.517Z,9.47
2019-04-30T14:13:59.326Z,11.43
2019-04-30T14:16:05.769Z,15.03
2019-04-30T14:18:13.523Z,9.50
2019-04-30T14:20:18.196Z,10.97
2019-04-30T14:22:23.023Z,10.93
2019-04-30T14:24:27.814Z,10.30
2019-04-30T14:26:32.555Z,12.97
2019-04-30T14:28:39.857Z,11.77
2019-04-30T14:30:44.654Z,10.73
2019-04-30T14:32:51.253Z,14.53
2019-04-30T14:34:56.003Z,13.00
2019-04-30T14:37:00.815Z,9.90
2019-04-30T14:39:14.414Z,12.27
2019-04-30T14:41:14.806Z,10.83
2019-04-30T14:43:39.462Z,10.70
2019-04-30T14:46:01.715Z,10.73
2019-04-30T14:48:19.994Z,10.87
2019-04-30T14:50:25.656Z,9.57
2019-04-30T14:52:32.081Z,10.80
2019-04-30T14:54:44.384Z,10.87
2019-04-30T14:56:56.644Z,11.73
2019-04-30T14:59:02.972Z,11.20
2019-04-30T15:01:19.364Z,10.23
2019-04-30T15:03:25.921Z,10.50
2019-04-30T15:05:39.010Z,10.97
2019-04-30T15:07:37.084Z,8.77
2019-04-30T15:09:41.796Z,10.30
2019-04-30T15:11:48.589Z,12.07
2019-04-30T15:13:52.966Z,12.53
2019-04-30T15:15:57.785Z,10.57
2019-04-30T15:18:02.546Z,12.07
2019-04-30T15:20:08.782Z,10.40
2019-04-30T15:22:14.819Z,9.47
2019-04-30T15:24:29.195Z,12.70
2019-04-30T15:26:33.559Z,8.93
2019-04-30T15:28:39.305Z,9.60
2019-04-30T15:30:44.797Z,9.33
2019-04-30T15:32:51.183Z,11.53
2019-04-30T15:34:55.947Z,9.93
2019-04-30T15:37:00.616Z,9.13
2019-04-30T15:39:23.502Z,10.10
2019-04-30T15:41:30.826Z,10.67
2019-04-30T15:43:35.981Z,9.80
2019-04-30T15:45:40.820Z,8.37
2019-04-30T15:47:48.582Z,8.80
2019-04-30T15:49:53.409Z,8.30
2019-04-30T15:51:58.103Z,8.83
2019-04-30T15:54:03.384Z,10.40
2019-04-30T15:56:08.586Z,8.30
2019-04-30T15:58:17.798Z,10.13
2019-04-30T16:00:22.842Z,9.83
2019-04-30T16:02:29.248Z,7.83
2019-04-30T16:04:38.542Z,7.97
2019-04-30T16:06:44.246Z,7.90
2019-04-30T16:08:50.565Z,7.87
2019-04-30T16:11:00.156Z,9.47
2019-04-30T16:13:04.979Z,7.10
2019-04-30T16:15:10.050Z,7.80
2019-04-30T16:17:20.732Z,8.43
2019-04-30T16:19:25.518Z,9.67
2019-04-30T16:21:30.312Z,7.70
2019-04-30T16:23:35.921Z,7.60
2019-04-30T16:25:40.727Z,8.63
2019-04-30T16:27:45.636Z,9.67
2019-04-30T16:29:50.324Z,9.33
2019-04-30T16:31:55.106Z,8.23
2019-04-30T16:33:59.795Z,8.97
2019-04-30T16:36:16.781Z,7.17
2019-04-30T16:38:21.455Z,9.63
2019-04-30T16:40:29.033Z,9.30
2019-04-30T16:42:34.344Z,8.63
2019-04-30T16:44:40.867Z,10.13
2019-04-30T16:46:46.731Z,7.57
2019-04-30T16:48:51.654Z,7.60
2019-04-30T16:50:56.358Z,10.50
2019-04-30T16:53:01.127Z,8.43
2019-04-30T16:55:07.576Z,7.77
2019-04-30T16:57:12.445Z,9.47
2019-04-30T16:59:38.988Z,7.97
2019-04-30T17:01:56.628Z,11.07
2019-04-30T17:03:52.124Z,10.00
2019-04-30T17:06:17.175Z,8.50
2019-04-30T17:08:23.607Z,12.37
2019-04-30T17:10:44.774Z,10.70
2019-04-30T17:12:53.860Z,8.90
2019-04-30T17:15:19.304Z,10.07
2019-04-30T17:17:24.064Z,7.73
2019-04-30T17:19:29.262Z,8.63
2019-04-30T17:21:34.102Z,9.40
2019-04-30T17:23:38.767Z,7.50
2019-04-30T17:25:43.515Z,8.97
2019-04-30T17:27:48.304Z,8.93
2019-04-30T17:29:53.041Z,10.40
2019-04-30T17:31:57.719Z,11.00
2019-04-30T17:34:02.497Z,8.50
2019-04-30T17:36:08.337Z,8.53
2019-04-30T17:38:13.587Z,8.67
2019-04-30T17:40:19.240Z,8.40
2019-04-30T17:42:24.196Z,8.47
2019-04-30T17:44:29.049Z,8.20
2019-04-30T17:46:33.865Z,7.83
2019-04-30T17:48:39.388Z,7.80
2019-04-30T17:50:44.316Z,8.27
2019-04-30T17:52:49.092Z,9.10
2019-04-30T17:54:53.750Z,7.33
2019-04-30T17:56:58.447Z,8.87
2019-04-30T17:59:03.279Z,7.30
2019-04-30T18:01:09.708Z,8.47
2019-04-30T18:03:14.582Z,8.87
2019-04-30T18:05:21.236Z,8.90
2019-04-30T18:07:29.535Z,9.80
2019-04-30T18:09:33.741Z,9.70
2019-04-30T18:11:39.626Z,9.13
2019-04-30T18:13:44.445Z,11.27
2019-04-30T18:15:49.193Z,8.13
2019-04-30T18:17:55.612Z,9.63
2019-04-30T18:20:02.002Z,7.37
2019-04-30T18:22:15.807Z,10.20
2019-04-30T18:24:23.958Z,9.40
2019-04-30T18:26:28.747Z,8.57
2019-04-30T18:28:35.034Z,8.30
2019-04-30T18:30:40.978Z,10.13
2019-04-30T18:32:45.970Z,8.60
2019-04-30T18:34:51.209Z,9.27
2019-04-30T18:36:56.040Z,6.53
2019-04-30T18:39:00.814Z,7.53
2019-04-30T18:41:09.330Z,6.73
2019-04-30T18:43:15.458Z,8.37
2019-04-30T18:45:20.197Z,11.10
2019-04-30T18:47:25.681Z,7.63
2019-04-30T18:49:30.567Z,7.83
2019-04-30T18:51:39.395Z,9.23
2019-04-30T18:53:43.797Z,7.33
2019-04-30T18:55:50.543Z,8.43
2019-04-30T18:57:56.767Z,8.40
2019-04-30T19:00:01.698Z,8.67
2019-04-30T19:02:08.937Z,8.57
2019-04-30T19:04:13.675Z,7.87
2019-04-30T19:06:23.782Z,7.57
2019-04-30T19:08:30.830Z,7.17
2019-04-30T19:10:47.549Z,7.77
2019-04-30T19:12:56.203Z,7.67
2019-04-30T19:15:05.171Z,7.13
2019-04-30T19:17:26.332Z,8.20
2019-04-30T19:19:36.618Z,8.13
2019-04-30T19:21:41.396Z,6.97
2019-04-30T19:23:46.429Z,7.33
2019-04-30T19:25:51.187Z,6.77
2019-04-30T19:28:09.578Z,8.23
2019-04-30T19:30:05.779Z,6.93
2019-04-30T19:32:10.557Z,7.50
2019-04-30T19:34:16.897Z,9.23
2019-04-30T19:36:33.938Z,8.37
2019-04-30T19:38:29.491Z,7.37
2019-04-30T19:40:34.383Z,8.30
2019-04-30T19:42:39.530Z,7.23
2019-04-30T19:44:56.122Z,6.70
2019-04-30T19:46:52.393Z,8.70
2019-04-30T19:48:58.550Z,10.03
2019-04-30T19:51:03.455Z,7.50
2019-04-30T19:53:08.829Z,8.70
2019-04-30T19:55:15.127Z,8.40
2019-04-30T19:57:20.593Z,8.33
2019-04-30T19:59:25.552Z,6.43
2019-04-30T20:01:30.238Z,9.57
2019-04-30T20:03:34.911Z,8.27
2019-04-30T20:05:39.693Z,7.60
2019-04-30T20:07:44.446Z,6.67
2019-04-30T20:10:00.274Z,6.63
2019-04-30T20:11:57.012Z,7.60
2019-04-30T20:14:01.859Z,7.20
2019-04-30T20:16:06.606Z,8.33
2019-04-30T20:18:11.482Z,6.17
2019-04-30T20:20:16.219Z,7.90
2019-04-30T20:22:21.122Z,7.00
2019-04-30T20:24:26.101Z,8.50
2019-04-30T20:26:30.847Z,8.23
2019-04-30T20:28:41.440Z,6.20
2019-04-30T20:30:41.933Z,8.50
2019-04-30T20:32:46.621Z,7.60
2019-04-30T20:34:51.394Z,7.87
2019-04-30T20:36:56.190Z,8.60
2019-04-30T20:39:15.956Z,7.20
2019-04-30T20:41:20.866Z,5.80
2019-04-30T20:43:25.624Z,6.07
2019-04-30T20:45:30.338Z,7.17
2019-04-30T20:47:35.160Z,7.30
2019-04-30T20:49:39.904Z,6.93
2019-04-30T20:51:53.561Z,5.93
2019-04-30T20:53:52.111Z,6.17
2019-04-30T20:55:56.868Z,7.67
2019-04-30T20:58:01.564Z,5.97
2019-04-30T21:00:06.614Z,7.33
2019-04-30T21:02:13.007Z,6.60
2019-04-30T21:04:20.577Z,6.17
2019-04-30T21:06:24.060Z,6.30
2019-04-30T21:08:28.828Z,6.20
2019-04-30T21:10:33.592Z,5.80
2019-04-30T21:12:39.690Z,5.53
2019-04-30T21:14:44.534Z,6.80
2019-04-30T21:16:49.214Z,5.83
2019-04-30T21:18:54.019Z,6.90
2019-04-30T21:20:59.628Z,5.93
2019-04-30T21:23:04.560Z,6.77
2019-04-30T21:25:10.937Z,5.93
2019-04-30T21:27:15.719Z,6.87
2019-04-30T21:29:20.514Z,4.93
2019-04-30T21:31:41.977Z,6.73
2019-04-30T21:33:49.265Z,5.67
2019-04-30T21:35:55.944Z,6.53
2019-04-30T21:38:02.457Z,6.27
2019-04-30T21:40:07.378Z,5.60
2019-04-30T21:42:13.772Z,6.57
2019-04-30T21:44:18.452Z,6.53
2019-04-30T21:46:23.116Z,6.70
2019-04-30T21:48:28.758Z,6.50
2019-04-30T21:50:33.676Z,7.60
2019-04-30T21:52:40.302Z,5.67
2019-04-30T21:54:44.898Z,5.90
2019-04-30T21:56:49.576Z,6.33
2019-04-30T21:58:54.324Z,5.93
2019-04-30T22:01:04.035Z,7.03
2019-04-30T22:03:09.926Z,5.10
2019-04-30T22:05:14.694Z,5.30
2019-04-30T22:07:19.654Z,7.03
2019-04-30T22:09:24.439Z,6.90
2019-04-30T22:11:29.731Z,7.27
2019-04-30T22:13:34.569Z,8.60
2019-04-30T22:15:39.267Z,6.40
2019-04-30T22:17:44.023Z,7.30
2019-04-30T22:19:49.129Z,7.47
2019-04-30T22:21:55.169Z,6.63
2019-04-30T22:23:59.835Z,5.87
2019-04-30T22:26:04.546Z,7.70
2019-04-30T22:28:09.209Z,5.93
2019-04-30T22:30:13.942Z,6.47
2019-04-30T22:32:18.653Z,6.60
2019-04-30T22:34:23.393Z,7.30
2019-04-30T22:36:41.939Z,6.40
2019-04-30T22:38:51.409Z,5.67
2019-04-30T22:40:56.159Z,6.60
2019-04-30T22:43:00.894Z,6.70
2019-04-30T22:45:08.899Z,6.50
2019-04-30T22:47:13.646Z,6.03
2019-04-30T22:49:18.332Z,6.40
2019-04-30T22:51:23.098Z,6.57
2019-04-30T22:53:27.843Z,7.60
2019-04-30T22:55:32.581Z,5.53
2019-04-30T22:57:37.372Z,7.03
2019-04-30T22:59:49.821Z,6.70
2019-04-30T23:01:56.017Z,5.80
2019-04-30T23:04:11.752Z,6.63
2019-04-30T23:06:16.512Z,5.57
2019-04-30T23:08:21.252Z,5.77
2019-04-30T23:10:26.069Z,6.87
2019-04-30T23:12:30.798Z,5.63
2019-04-30T23:14:35.538Z,6.67
2019-04-30T23:16:40.394Z,6.40
2019-04-30T23:18:45.162Z,5.77
2019-04-30T23:20:50.260Z,6.73
2019-04-30T23:22:55.004Z,7.43
2019-04-30T23:24:59.812Z,6.77
2019-04-30T23:27:04.568Z,7.33
2019-04-30T23:29:09.314Z,6.93
2019-04-30T23:31:14.010Z,6.10
2019-04-30T23:33:18.758Z,6.40
2019-04-30T23:35:23.520Z,7.93
2019-04-30T23:37:28.309Z,7.33
2019-04-30T23:39:33.062Z,7.53
2019-04-30T23:41:37.814Z,7.60
2019-04-30T23:43:42.608Z,6.47
2019-04-30T23:45:47.356Z,7.00
2019-04-30T23:47:52.120Z,6.70
2019-04-30T23:49:57.281Z,6.13
2019-04-30T23:52:02.038Z,6.03
2019-04-30T23:54:06.773Z,6.23
2019-04-30T23:56:11.558Z,6.97
2019-04-30T23:58:16.315Z,7.63
